createdAt,value
2023-05-04T00:00:44.286Z,24.78
2023-05-04T00:01:44.262Z,24.77
2023-05-04T00:02:44.337Z,24.77
2023-05-04T00:03:44.452Z,24.81
2023-05-04T00:04:44.323Z,24.76
2023-05-04T00:05:44.237Z,24.74
2023-05-04T00:06:44.252Z,24.76
2023-05-04T00:07:44.256Z,24.76
2023-05-04T00:08:44.217Z,24.71
2023-05-04T00:09:44.213Z,24.73
2023-05-04T00:10:44.209Z,24.74
2023-05-04T00:11:44.202Z,24.73
2023-05-04T00:12:44.242Z,24.73
2023-05-04T00:13:44.183Z,24.72
2023-05-04T00:14:44.203Z,24.72
2023-05-04T00:15:44.194Z,24.70
2023-05-04T00:16:44.333Z,24.73
2023-05-04T00:17:44.187Z,24.70
2023-05-04T00:18:44.138Z,24.66
2023-05-04T00:19:44.136Z,24.68
2023-05-04T00:20:44.133Z,24.72
2023-05-04T00:21:44.153Z,24.64
2023-05-04T00:22:44.124Z,24.72
2023-05-04T00:23:44.124Z,24.69
2023-05-04T00:24:44.121Z,24.63
2023-05-04T00:25:44.096Z,24.66
2023-05-04T00:26:44.096Z,24.66
2023-05-04T00:27:44.088Z,24.69
2023-05-04T00:28:44.083Z,24.65
2023-05-04T00:29:44.066Z,24.65
2023-05-04T00:30:44.053Z,24.66
2023-05-04T00:31:44.134Z,24.61
2023-05-04T00:32:44.139Z,24.63
2023-05-04T00:33:44.053Z,24.62
2023-05-04T00:34:44.060Z,24.61
2023-05-04T00:35:44.052Z,24.57
2023-05-04T00:36:44.058Z,24.62
2023-05-04T00:37:44.037Z,24.65
2023-05-04T00:38:44.033Z,24.67
2023-05-04T00:39:44.054Z,24.62
2023-05-04T00:40:44.051Z,24.58
2023-05-04T00:41:44.039Z,24.57
2023-05-04T00:42:44.063Z,24.58
2023-05-04T00:43:44.072Z,24.58
2023-05-04T00:44:44.064Z,24.59
2023-05-04T00:45:44.064Z,24.62
2023-05-04T00:46:44.114Z,24.62
2023-05-04T00:47:44.126Z,24.57
2023-05-04T00:48:44.063Z,24.65
2023-05-04T00:49:44.072Z,24.65
2023-05-04T00:50:44.105Z,24.60
2023-05-04T00:51:44.113Z,24.62
2023-05-04T00:52:44.096Z,24.63
2023-05-04T00:53:44.105Z,24.65
2023-05-04T00:54:44.104Z,24.59
2023-05-04T00:55:44.108Z,24.59
2023-05-04T00:56:44.118Z,24.55
2023-05-04T00:57:44.116Z,24.57
2023-05-04T00:58:44.110Z,24.58
2023-05-04T00:59:44.127Z,24.62
2023-05-04T01:00:44.153Z,24.58
2023-05-04T01:01:44.139Z,24.61
2023-05-04T01:02:44.153Z,24.57
2023-05-04T01:03:44.210Z,24.57
2023-05-04T01:04:44.154Z,24.57
2023-05-04T01:05:44.150Z,24.55
2023-05-04T01:06:44.141Z,24.50
2023-05-04T01:07:44.170Z,24.55
2023-05-04T01:08:44.154Z,24.57
2023-05-04T01:09:44.173Z,24.50
2023-05-04T01:10:44.158Z,24.54
2023-05-04T01:11:44.165Z,24.57
2023-05-04T01:12:44.259Z,24.50
2023-05-04T01:13:44.203Z,24.50
2023-05-04T01:14:44.180Z,24.51
2023-05-04T01:15:44.208Z,24.53
2023-05-04T01:16:44.260Z,24.55
2023-05-04T01:17:44.213Z,24.50
2023-05-04T01:18:44.198Z,24.46
2023-05-04T01:19:44.226Z,24.50
2023-05-04T01:20:44.227Z,24.50
2023-05-04T01:21:44.225Z,24.49
2023-05-04T01:22:44.239Z,24.54
2023-05-04T01:23:44.233Z,24.51
2023-05-04T01:24:44.234Z,24.47
2023-05-04T01:25:44.234Z,24.51
2023-05-04T01:26:44.237Z,24.50
2023-05-04T01:27:44.250Z,24.50
2023-05-04T01:28:44.246Z,24.47
2023-05-04T01:29:44.264Z,24.49
2023-05-04T01:30:44.296Z,24.46
2023-05-04T01:31:44.269Z,24.47
2023-05-04T01:32:44.353Z,24.49
2023-05-04T01:33:44.277Z,24.50
2023-05-04T01:34:44.308Z,24.49
2023-05-04T01:35:44.296Z,24.50
2023-05-04T01:36:44.306Z,24.47
2023-05-04T01:37:44.306Z,24.45
2023-05-04T01:38:44.334Z,24.44
2023-05-04T01:39:44.333Z,24.47
2023-05-04T01:40:44.357Z,24.49
2023-05-04T01:41:44.349Z,24.49
2023-05-04T01:42:44.347Z,24.44
2023-05-04T01:43:44.356Z,24.47
2023-05-04T01:44:44.372Z,24.39
2023-05-04T01:45:44.395Z,24.44
2023-05-04T01:46:44.424Z,24.38
2023-05-04T01:47:44.452Z,24.44
2023-05-04T01:48:44.409Z,24.38
2023-05-04T01:49:44.426Z,24.39
2023-05-04T01:50:44.431Z,24.39
2023-05-04T01:51:44.444Z,24.39
2023-05-04T01:52:44.430Z,24.35
2023-05-04T01:53:44.457Z,24.36
2023-05-04T01:54:44.441Z,24.38
2023-05-04T01:55:44.453Z,24.42
2023-05-04T01:56:44.492Z,24.35
2023-05-04T01:57:44.506Z,24.36
2023-05-04T01:58:44.477Z,24.34
2023-05-04T01:59:44.487Z,24.34
2023-05-04T02:00:44.472Z,24.38
2023-05-04T02:01:44.537Z,24.39
2023-05-04T02:02:44.538Z,24.35
2023-05-04T02:03:44.676Z,24.34
2023-05-04T02:04:44.506Z,24.35
2023-05-04T02:05:44.519Z,24.32
2023-05-04T02:06:44.533Z,24.29
2023-05-04T02:07:44.536Z,24.33
2023-05-04T02:08:44.538Z,24.33
2023-05-04T02:09:44.548Z,24.29
2023-05-04T02:10:44.546Z,24.36
2023-05-04T02:11:44.579Z,24.35
2023-05-04T02:12:44.722Z,24.33
2023-05-04T02:13:44.592Z,24.31
2023-05-04T02:14:44.588Z,24.33
2023-05-04T02:15:44.645Z,24.31
2023-05-04T02:16:44.617Z,24.26
2023-05-04T02:17:44.672Z,24.26
2023-05-04T02:18:44.632Z,24.25
2023-05-04T02:19:44.649Z,24.30
2023-05-04T02:20:44.640Z,24.30
2023-05-04T02:21:44.656Z,24.26
2023-05-04T02:22:44.705Z,24.25
2023-05-04T02:23:44.657Z,24.21
2023-05-04T02:24:44.668Z,24.25
2023-05-04T02:25:44.694Z,24.21
2023-05-04T02:26:44.683Z,24.21
2023-05-04T02:27:44.691Z,24.25
2023-05-04T02:28:44.723Z,24.26
2023-05-04T02:29:44.686Z,24.26
2023-05-04T02:30:44.717Z,24.25
2023-05-04T02:31:44.807Z,24.25
2023-05-04T02:32:44.775Z,24.18
2023-05-04T02:33:44.707Z,24.18
2023-05-04T02:34:44.718Z,24.22
2023-05-04T02:35:44.716Z,24.19
2023-05-04T02:36:44.741Z,24.18
2023-05-04T02:37:44.737Z,24.19
2023-05-04T02:38:44.739Z,24.18
2023-05-04T02:39:44.765Z,24.18
2023-05-04T02:40:44.771Z,24.15
2023-05-04T02:41:44.753Z,24.13
2023-05-04T02:42:44.770Z,24.19
2023-05-04T02:43:44.772Z,24.19
2023-05-04T02:44:44.795Z,24.16
2023-05-04T02:45:44.817Z,24.18
2023-05-04T02:46:44.801Z,24.15
2023-05-04T02:47:44.854Z,24.14
2023-05-04T02:48:44.828Z,24.14
2023-05-04T02:49:44.820Z,24.18
2023-05-04T02:50:44.809Z,24.15
2023-05-04T02:51:44.815Z,24.15
2023-05-04T02:52:44.910Z,24.08
2023-05-04T02:53:44.838Z,24.11
2023-05-04T02:54:44.859Z,24.13
2023-05-04T02:55:44.844Z,24.10
2023-05-04T02:56:44.851Z,24.06
2023-05-04T02:57:44.870Z,24.05
2023-05-04T02:58:44.887Z,24.03
2023-05-04T02:59:44.884Z,24.03
2023-05-04T03:00:44.890Z,24.06
2023-05-04T03:01:44.940Z,24.06
2023-05-04T03:02:44.928Z,24.07
2023-05-04T03:03:44.968Z,24.11
2023-05-04T03:04:44.966Z,24.06
2023-05-04T03:05:44.916Z,24.07
2023-05-04T03:06:44.929Z,24.07
2023-05-04T03:07:44.942Z,24.06
2023-05-04T03:08:44.984Z,24.02
2023-05-04T03:09:47.418Z,24.08
2023-05-04T03:10:44.952Z,24.04
2023-05-04T03:11:44.927Z,23.98
2023-05-04T03:12:45.033Z,23.99
2023-05-04T03:13:44.918Z,24.03
2023-05-04T03:14:44.924Z,23.97
2023-05-04T03:15:44.897Z,24.01
2023-05-04T03:16:45.000Z,24.06
2023-05-04T03:17:44.985Z,24.03
2023-05-04T03:18:44.894Z,24.07
2023-05-04T03:19:44.891Z,24.06
2023-05-04T03:20:44.885Z,24.10
2023-05-04T03:21:44.872Z,24.01
2023-05-04T03:22:44.874Z,24.02
2023-05-04T03:23:44.853Z,24.02
2023-05-04T03:24:44.850Z,24.02
2023-05-04T03:25:44.846Z,24.01
2023-05-04T03:26:44.831Z,24.01
2023-05-04T03:27:44.828Z,24.02
2023-05-04T03:28:44.844Z,23.99
2023-05-04T03:29:44.806Z,24.01
2023-05-04T03:30:44.801Z,24.03
2023-05-04T03:31:44.810Z,24.01
2023-05-04T03:32:44.867Z,24.01
2023-05-04T03:33:44.781Z,24.06
2023-05-04T03:34:44.795Z,23.99
2023-05-04T03:35:44.766Z,23.95
2023-05-04T03:36:44.754Z,23.96
2023-05-04T03:37:44.756Z,23.97
2023-05-04T03:38:44.765Z,23.99
2023-05-04T03:39:44.760Z,23.95
2023-05-04T03:40:44.747Z,23.99
2023-05-04T03:41:44.724Z,23.97
2023-05-04T03:42:44.719Z,24.01
2023-05-04T03:43:44.721Z,23.97
2023-05-04T03:44:44.720Z,23.94
2023-05-04T03:45:44.722Z,23.95
2023-05-04T03:46:44.703Z,23.92
2023-05-04T03:47:44.780Z,23.95
2023-05-04T03:48:44.660Z,23.86
2023-05-04T03:49:44.668Z,23.95
2023-05-04T03:50:44.649Z,23.92
2023-05-04T03:51:44.653Z,23.99
2023-05-04T03:52:44.678Z,23.91
2023-05-04T03:53:45.066Z,23.92
2023-05-04T03:54:44.629Z,23.96
2023-05-04T03:55:44.630Z,23.98
2023-05-04T03:56:44.624Z,23.94
2023-05-04T03:57:44.603Z,23.95
2023-05-04T03:58:44.590Z,23.92
2023-05-04T03:59:44.580Z,23.95
2023-05-04T04:00:44.651Z,23.99
2023-05-04T04:01:44.587Z,23.91
2023-05-04T04:02:44.676Z,23.92
2023-05-04T04:03:44.607Z,23.89
2023-05-04T04:04:44.673Z,23.87
2023-05-04T04:05:44.550Z,23.89
2023-05-04T04:06:44.560Z,23.90
2023-05-04T04:07:44.566Z,23.87
2023-05-04T04:08:44.531Z,23.91
2023-05-04T04:09:44.532Z,23.91
2023-05-04T04:10:44.512Z,23.94
2023-05-04T04:11:44.507Z,23.90
2023-05-04T04:12:44.588Z,23.94
2023-05-04T04:13:44.494Z,23.87
2023-05-04T04:14:44.526Z,23.88
2023-05-04T04:15:44.543Z,23.91
2023-05-04T04:16:44.645Z,23.89
2023-05-04T04:17:44.513Z,23.90
2023-05-04T04:18:44.467Z,23.88
2023-05-04T04:19:44.439Z,23.91
2023-05-04T04:20:44.458Z,23.91
2023-05-04T04:21:44.427Z,23.94
2023-05-04T04:22:44.544Z,23.95
2023-05-04T04:23:44.426Z,23.88
2023-05-04T04:24:44.433Z,23.90
2023-05-04T04:25:44.604Z,23.92
2023-05-04T04:26:44.409Z,23.91
2023-05-04T04:27:44.396Z,23.90
2023-05-04T04:28:44.398Z,23.88
2023-05-04T04:29:44.394Z,23.83
2023-05-04T04:30:44.375Z,23.88
2023-05-04T04:31:44.393Z,23.86
2023-05-04T04:32:44.441Z,23.82
2023-05-04T04:33:44.366Z,23.84
2023-05-04T04:34:44.335Z,23.78
2023-05-04T04:35:44.348Z,23.84
2023-05-04T04:36:44.335Z,23.84
2023-05-04T04:37:44.326Z,23.84
2023-05-04T04:38:44.307Z,23.86
2023-05-04T04:39:44.328Z,23.87
2023-05-04T04:40:44.309Z,23.80
2023-05-04T04:41:44.295Z,23.82
2023-05-04T04:42:44.282Z,23.82
2023-05-04T04:43:44.267Z,23.83
2023-05-04T04:44:44.288Z,23.82
2023-05-04T04:45:44.354Z,23.79
2023-05-04T04:46:44.309Z,23.79
2023-05-04T04:47:44.280Z,23.84
2023-05-04T04:48:44.255Z,23.79
2023-05-04T04:49:44.226Z,23.75
2023-05-04T04:50:44.222Z,23.76
2023-05-04T04:51:44.226Z,23.76
2023-05-04T04:52:44.266Z,23.80
2023-05-04T04:53:44.212Z,23.82
2023-05-04T04:54:44.207Z,23.79
2023-05-04T04:55:44.207Z,23.80
2023-05-04T04:56:44.169Z,23.84
2023-05-04T04:57:44.180Z,23.86
2023-05-04T04:58:44.166Z,23.83
2023-05-04T04:59:44.146Z,23.80
2023-05-04T05:00:44.201Z,23.82
2023-05-04T05:01:44.142Z,23.82
2023-05-04T05:02:44.245Z,23.85
2023-05-04T05:03:44.146Z,23.85
2023-05-04T05:04:44.142Z,23.83
2023-05-04T05:05:44.129Z,23.88
2023-05-04T05:06:44.145Z,23.89
2023-05-04T05:07:44.253Z,23.87
2023-05-04T05:08:44.119Z,23.87
2023-05-04T05:09:44.087Z,23.93
2023-05-04T05:10:44.232Z,23.93
2023-05-04T05:11:44.064Z,23.93
2023-05-04T05:12:44.136Z,23.93
2023-05-04T05:13:44.057Z,23.95
2023-05-04T05:14:44.051Z,23.97
2023-05-04T05:15:44.042Z,23.95
2023-05-04T05:16:44.105Z,23.97
2023-05-04T05:17:44.089Z,23.97
2023-05-04T05:18:44.056Z,24.01
2023-05-04T05:19:44.067Z,24.03
2023-05-04T05:20:44.095Z,24.02
2023-05-04T05:21:44.078Z,24.04
2023-05-04T05:22:44.083Z,24.05
2023-05-04T05:23:44.096Z,24.04
2023-05-04T05:24:44.097Z,24.02
2023-05-04T05:25:44.111Z,24.02
2023-05-04T05:26:44.131Z,24.03
2023-05-04T05:27:44.254Z,24.06
2023-05-04T05:28:44.235Z,24.20
2023-05-04T05:29:44.126Z,24.47
2023-05-04T05:30:44.175Z,24.49
2023-05-04T05:31:44.106Z,24.95
2023-05-04T05:32:44.659Z,25.09
2023-05-04T05:33:44.094Z,25.67
2023-05-04T05:34:44.133Z,25.57
2023-05-04T05:35:44.133Z,25.56
2023-05-04T05:36:44.134Z,25.88
2023-05-04T05:37:44.252Z,25.68
2023-05-04T05:38:44.139Z,25.84
2023-05-04T05:39:44.163Z,25.73
2023-05-04T05:40:44.202Z,25.99
2023-05-04T05:41:44.237Z,26.03
2023-05-04T05:42:44.266Z,25.89
2023-05-04T05:43:44.284Z,25.86
2023-05-04T05:44:44.348Z,26.08
2023-05-04T05:45:44.412Z,26.25
2023-05-04T05:46:44.568Z,26.34
2023-05-04T05:47:44.571Z,26.60
2023-05-04T05:48:44.598Z,26.54
2023-05-04T05:49:46.285Z,26.59
2023-05-04T05:50:44.770Z,26.82
2023-05-04T05:51:44.764Z,26.42
2023-05-04T05:52:44.829Z,26.35
2023-05-04T05:53:44.866Z,26.36
2023-05-04T05:54:44.896Z,26.53
2023-05-04T05:55:44.928Z,26.88
2023-05-04T05:56:44.921Z,27.14
2023-05-04T05:57:44.944Z,27.32
2023-05-04T05:58:44.985Z,27.71
2023-05-04T05:59:45.023Z,27.91
2023-05-04T06:00:45.070Z,28.19
2023-05-04T06:01:45.121Z,28.37
2023-05-04T06:02:45.311Z,28.62
2023-05-04T06:03:45.396Z,28.92
2023-05-04T06:04:45.246Z,28.85
2023-05-04T06:05:45.198Z,28.75
2023-05-04T06:06:46.143Z,28.76
2023-05-04T06:07:45.270Z,28.68
2023-05-04T06:08:45.338Z,28.61
2023-05-04T06:09:45.378Z,28.62
2023-05-04T06:10:45.406Z,28.49
2023-05-04T06:11:45.450Z,28.31
2023-05-04T06:12:45.612Z,28.21
2023-05-04T06:13:45.517Z,28.06
2023-05-04T06:14:45.574Z,28.04
2023-05-04T06:15:45.556Z,27.84
2023-05-04T06:16:45.658Z,27.71
2023-05-04T06:17:45.634Z,27.68
2023-05-04T06:18:45.600Z,27.73
2023-05-04T06:19:45.911Z,27.68
2023-05-04T06:20:45.611Z,27.58
2023-05-04T06:21:45.605Z,27.58
2023-05-04T06:22:45.632Z,27.48
2023-05-04T06:23:45.617Z,27.56
2023-05-04T06:24:45.601Z,27.57
2023-05-04T06:25:45.644Z,27.59
2023-05-04T06:26:45.627Z,27.67
2023-05-04T06:27:45.666Z,27.64
2023-05-04T06:28:45.687Z,27.61
2023-05-04T06:29:45.745Z,27.49
2023-05-04T06:30:45.812Z,27.60
2023-05-04T06:31:46.845Z,27.45
2023-05-04T06:32:46.288Z,27.08
2023-05-04T06:33:45.952Z,26.84
2023-05-04T06:34:45.949Z,27.34
2023-05-04T06:35:46.036Z,27.28
2023-05-04T06:36:45.971Z,27.20
2023-05-04T06:37:46.271Z,27.40
2023-05-04T06:38:46.030Z,27.42
2023-05-04T06:39:46.057Z,27.73
2023-05-04T06:40:46.146Z,27.91
2023-05-04T06:41:46.227Z,27.97
2023-05-04T06:42:46.242Z,27.96
2023-05-04T06:43:46.297Z,28.00
2023-05-04T06:44:46.364Z,27.97
2023-05-04T06:45:46.465Z,27.97
2023-05-04T06:46:46.422Z,27.84
2023-05-04T06:47:46.501Z,27.68
2023-05-04T06:48:46.516Z,27.59
2023-05-04T06:49:46.557Z,27.56
2023-05-04T06:50:46.590Z,27.49
2023-05-04T06:51:46.596Z,27.50
2023-05-04T06:52:46.670Z,27.45
2023-05-04T06:53:46.618Z,27.44
2023-05-04T06:54:46.613Z,27.38
2023-05-04T06:55:46.702Z,27.35
2023-05-04T06:56:46.616Z,27.33
2023-05-04T06:57:46.739Z,27.34
2023-05-04T06:58:46.624Z,27.32
2023-05-04T06:59:46.671Z,27.20
2023-05-04T07:00:46.709Z,27.26
2023-05-04T07:01:46.766Z,27.17
2023-05-04T07:02:46.844Z,27.20
2023-05-04T07:03:46.898Z,27.12
2023-05-04T07:04:46.944Z,27.10
2023-05-04T07:05:46.988Z,27.11
2023-05-04T07:06:47.047Z,27.05
2023-05-04T07:07:48.095Z,27.03
2023-05-04T07:08:47.155Z,26.93
2023-05-04T07:09:47.189Z,27.00
2023-05-04T07:10:47.270Z,26.99
2023-05-04T07:11:47.290Z,27.03
2023-05-04T07:12:47.821Z,26.99
2023-05-04T07:13:47.389Z,26.96
2023-05-04T07:14:47.456Z,26.99
2023-05-04T07:15:47.505Z,26.93
2023-05-04T07:16:47.557Z,26.90
2023-05-04T07:17:47.632Z,26.88
2023-05-04T07:18:47.618Z,26.89
2023-05-04T07:19:47.730Z,26.90
2023-05-04T07:20:47.680Z,26.86
2023-05-04T07:21:47.727Z,26.92
2023-05-04T07:22:47.821Z,26.89
2023-05-04T07:23:47.792Z,26.87
2023-05-04T07:24:47.851Z,26.87
2023-05-04T07:25:47.894Z,26.88
2023-05-04T07:26:47.916Z,26.87
2023-05-04T07:27:48.299Z,26.88
2023-05-04T07:28:47.953Z,26.89
2023-05-04T07:29:47.994Z,26.86
2023-05-04T07:30:48.046Z,26.90
2023-05-04T07:31:48.104Z,26.95
2023-05-04T07:32:48.309Z,26.93
2023-05-04T07:33:48.081Z,26.94
2023-05-04T07:34:48.127Z,26.91
2023-05-04T07:35:48.144Z,26.91
2023-05-04T07:36:48.176Z,26.90
2023-05-04T07:37:48.332Z,26.90
2023-05-04T07:38:48.243Z,26.91
2023-05-04T07:39:48.269Z,26.87
2023-05-04T07:41:49.728Z,26.88
2023-05-04T07:42:49.093Z,26.92
2023-05-04T07:43:49.088Z,26.76
2023-05-04T07:44:48.868Z,26.81
2023-05-04T07:45:48.909Z,26.76
2023-05-04T07:46:48.867Z,26.79
2023-05-04T07:47:49.160Z,26.82
2023-05-04T07:48:49.673Z,26.76
2023-05-04T07:49:48.854Z,26.73
2023-05-04T07:50:48.861Z,26.71
2023-05-04T07:51:48.839Z,26.77
2023-05-04T07:52:49.641Z,26.72
2023-05-04T07:53:48.834Z,26.72
2023-05-04T07:54:48.853Z,26.75
2023-05-04T07:55:48.828Z,26.70
2023-05-04T07:56:49.610Z,26.69
2023-05-04T07:57:49.111Z,26.69
2023-05-04T07:58:48.810Z,26.66
2023-05-04T07:59:48.773Z,26.69
2023-05-04T08:00:48.767Z,26.69
2023-05-04T08:01:48.816Z,26.65
2023-05-04T08:02:49.266Z,26.60
2023-05-04T08:03:48.845Z,26.61
2023-05-04T08:04:48.740Z,26.60
2023-05-04T08:05:48.731Z,26.60
2023-05-04T08:06:48.763Z,26.55
2023-05-04T08:07:48.745Z,26.57
2023-05-04T08:08:49.874Z,26.52
2023-05-04T08:09:48.726Z,26.54
2023-05-04T08:10:48.737Z,26.53
2023-05-04T08:11:48.706Z,26.49
2023-05-04T08:12:48.939Z,26.46
2023-05-04T08:13:48.780Z,26.46
2023-05-04T08:14:48.698Z,26.47
2023-05-04T08:15:48.689Z,26.41
2023-05-04T08:16:48.681Z,26.47
2023-05-04T08:17:48.725Z,26.44
2023-05-04T08:18:48.721Z,26.41
2023-05-04T08:19:48.654Z,26.37
2023-05-04T08:20:48.682Z,26.37
2023-05-04T08:21:48.667Z,26.61
2023-05-04T08:22:48.645Z,26.67
2023-05-04T08:23:49.132Z,26.93
2023-05-04T08:24:48.625Z,27.13
2023-05-04T08:25:48.608Z,27.08
2023-05-04T08:27:48.665Z,26.84
2023-05-04T08:28:48.640Z,26.95
2023-05-04T08:29:48.576Z,26.97
2023-05-04T08:30:48.591Z,26.93
2023-05-04T08:31:48.589Z,26.90
2023-05-04T08:32:48.727Z,26.79
2023-05-04T08:33:48.565Z,26.65
2023-05-04T08:34:48.558Z,26.51
2023-05-04T08:35:48.529Z,26.49
2023-05-04T08:36:48.561Z,26.91
2023-05-04T08:37:48.623Z,26.78
2023-05-04T08:38:48.508Z,27.02
2023-05-04T08:39:48.516Z,27.40
2023-05-04T08:40:50.598Z,27.44
2023-05-04T08:41:48.505Z,27.38
2023-05-04T08:42:48.481Z,27.51
2023-05-04T08:43:48.491Z,27.63
2023-05-04T08:44:48.495Z,27.68
2023-05-04T08:45:48.510Z,27.64
2023-05-04T08:46:48.443Z,27.71
2023-05-04T08:47:48.476Z,27.82
2023-05-04T08:48:48.526Z,27.90
2023-05-04T08:49:48.446Z,27.87
2023-05-04T08:50:48.459Z,28.00
2023-05-04T08:51:48.472Z,28.08
2023-05-04T08:52:48.527Z,28.11
2023-05-04T08:53:48.491Z,28.15
2023-05-04T08:54:48.492Z,28.25
2023-05-04T08:55:48.504Z,28.16
2023-05-04T08:56:48.528Z,28.23
2023-05-04T08:57:50.670Z,28.27
2023-05-04T08:58:48.679Z,28.32
2023-05-04T08:59:48.666Z,28.39
2023-05-04T09:00:48.689Z,28.31
2023-05-04T09:01:48.862Z,28.39
2023-05-04T09:02:48.722Z,28.37
2023-05-04T09:03:48.875Z,28.36
2023-05-04T09:04:48.667Z,28.32
2023-05-04T09:05:48.632Z,28.34
2023-05-04T09:06:48.662Z,28.39
2023-05-04T09:07:48.643Z,28.34
2023-05-04T09:08:49.147Z,28.36
2023-05-04T09:09:48.629Z,28.27
2023-05-04T09:10:48.728Z,28.34
2023-05-04T09:11:48.612Z,28.32
2023-05-04T09:12:48.692Z,28.29
2023-05-04T09:13:48.641Z,28.30
2023-05-04T09:14:48.655Z,28.33
2023-05-04T09:15:48.660Z,28.22
2023-05-04T09:16:48.760Z,28.26
2023-05-04T09:17:57.722Z,28.25
2023-05-04T09:18:49.758Z,28.19
2023-05-04T09:19:48.752Z,28.23
2023-05-04T09:20:48.748Z,28.18
2023-05-04T09:21:48.744Z,28.22
2023-05-04T09:22:49.168Z,28.15
2023-05-04T09:23:48.821Z,28.13
2023-05-04T09:24:48.731Z,28.22
2023-05-04T09:25:48.728Z,28.21
2023-05-04T09:26:48.812Z,27.94
2023-05-04T09:27:49.152Z,28.16
2023-05-04T09:28:48.897Z,28.43
2023-05-04T09:29:48.982Z,27.38
2023-05-04T09:30:49.151Z,26.84
2023-05-04T09:31:49.059Z,26.41
2023-05-04T09:32:49.210Z,26.52
2023-05-04T09:33:50.076Z,26.71
2023-05-04T09:34:49.093Z,26.58
2023-05-04T09:35:49.110Z,26.02
2023-05-04T09:36:49.110Z,26.47
2023-05-04T09:37:49.150Z,26.24
2023-05-04T09:38:49.336Z,26.53
2023-05-04T09:39:49.223Z,26.90
2023-05-04T09:40:49.267Z,26.68
2023-05-04T09:41:49.296Z,26.43
2023-05-04T09:42:49.366Z,26.57
2023-05-04T09:43:49.398Z,26.48
2023-05-04T09:44:49.404Z,26.63
2023-05-04T09:45:49.459Z,26.13
2023-05-04T09:46:49.552Z,26.05
2023-05-04T09:47:49.536Z,25.78
2023-05-04T09:48:49.575Z,25.90
2023-05-04T09:49:49.645Z,25.69
2023-05-04T09:50:49.668Z,25.56
2023-05-04T09:51:49.714Z,25.73
2023-05-04T09:52:49.761Z,26.01
2023-05-04T09:53:50.182Z,25.63
2023-05-04T09:54:49.867Z,25.30
2023-05-04T09:55:50.001Z,25.02
2023-05-04T09:56:49.950Z,25.19
2023-05-04T09:57:50.025Z,25.19
2023-05-04T09:58:50.159Z,25.05
2023-05-04T09:59:50.148Z,25.02
2023-05-04T10:00:50.186Z,25.14
2023-05-04T10:01:50.214Z,25.28
2023-05-04T10:02:50.338Z,25.51
2023-05-04T10:03:50.313Z,25.54
2023-05-04T10:04:50.354Z,25.71
2023-05-04T10:05:50.464Z,25.78
2023-05-04T10:06:50.478Z,25.86
2023-05-04T10:07:50.527Z,25.92
2023-05-04T10:08:50.602Z,25.98
2023-05-04T10:09:50.641Z,25.98
2023-05-04T10:10:50.694Z,26.11
2023-05-04T10:11:50.771Z,26.01
2023-05-04T10:12:50.827Z,26.05
2023-05-04T10:13:50.899Z,26.05
2023-05-04T10:14:50.900Z,25.96
2023-05-04T10:15:50.933Z,26.31
2023-05-04T10:16:50.982Z,26.24
2023-05-04T10:17:51.162Z,26.11
2023-05-04T10:18:51.079Z,25.66
2023-05-04T10:19:51.114Z,25.49
2023-05-04T10:20:51.183Z,25.36
2023-05-04T10:21:51.285Z,25.23
2023-05-04T10:22:51.297Z,25.16
2023-05-04T10:23:51.646Z,24.94
2023-05-04T10:24:51.314Z,24.98
2023-05-04T10:25:51.297Z,25.23
2023-05-04T10:26:51.309Z,25.14
2023-05-04T10:27:51.291Z,25.02
2023-05-04T10:28:51.334Z,24.75
2023-05-04T10:29:51.373Z,24.84
2023-05-04T10:30:51.384Z,24.31
2023-05-04T10:31:51.431Z,24.77
2023-05-04T10:32:51.415Z,24.68
2023-05-04T10:33:51.676Z,24.92
2023-05-04T10:34:51.406Z,25.11
2023-05-04T10:35:51.435Z,24.63
2023-05-04T10:36:51.431Z,25.10
2023-05-04T10:37:51.461Z,25.24
2023-05-04T10:38:51.475Z,25.35
2023-05-04T10:39:51.577Z,25.43
2023-05-04T10:40:51.505Z,25.50
2023-05-04T10:41:51.518Z,25.69
2023-05-04T10:42:51.534Z,25.62
2023-05-04T10:43:51.556Z,25.66
2023-05-04T10:44:51.553Z,25.63
2023-05-04T10:45:51.593Z,25.66
2023-05-04T10:46:51.552Z,25.65
2023-05-04T10:47:51.604Z,25.28
2023-05-04T10:48:51.575Z,25.32
2023-05-04T10:49:51.607Z,25.04
2023-05-04T10:50:51.610Z,24.89
2023-05-04T10:51:51.623Z,24.83
2023-05-04T10:52:51.627Z,24.94
2023-05-04T10:53:51.759Z,25.02
2023-05-04T10:54:51.666Z,25.05
2023-05-04T10:55:51.720Z,25.09
2023-05-04T10:56:51.810Z,25.14
2023-05-04T10:57:51.879Z,25.15
2023-05-04T10:58:52.187Z,25.18
2023-05-04T10:59:51.969Z,25.22
2023-05-04T11:00:52.049Z,25.12
2023-05-04T11:01:52.112Z,25.14
2023-05-04T11:02:52.348Z,25.22
2023-05-04T11:03:52.797Z,25.18
2023-05-04T11:04:52.198Z,25.24
2023-05-04T11:05:52.261Z,25.22
2023-05-04T11:06:52.281Z,25.19
2023-05-04T11:07:52.294Z,25.24
2023-05-04T11:08:52.362Z,25.33
2023-05-04T11:09:52.468Z,25.32
2023-05-04T11:10:52.403Z,25.38
2023-05-04T11:11:52.427Z,25.46
2023-05-04T11:12:52.482Z,25.65
2023-05-04T11:13:52.462Z,25.69
2023-05-04T11:14:52.486Z,25.18
2023-05-04T11:15:52.519Z,24.67
2023-05-04T11:16:52.582Z,24.39
2023-05-04T11:17:52.745Z,24.02
2023-05-04T11:18:52.583Z,24.28
2023-05-04T11:19:52.688Z,24.38
2023-05-04T11:20:52.674Z,24.31
2023-05-04T11:21:52.718Z,24.37
2023-05-04T11:22:52.760Z,24.40
2023-05-04T11:23:52.813Z,24.41
2023-05-04T11:25:02.687Z,24.40
2023-05-04T11:25:53.968Z,24.31
2023-05-04T11:26:52.851Z,24.25
2023-05-04T11:27:52.854Z,24.33
2023-05-04T11:28:52.865Z,24.33
2023-05-04T11:29:52.842Z,24.33
2023-05-04T11:30:55.002Z,24.33
2023-05-04T11:31:52.860Z,24.30
2023-05-04T11:32:52.850Z,24.31
2023-05-04T11:33:52.835Z,24.25
2023-05-04T11:34:52.812Z,24.14
2023-05-04T11:35:52.829Z,24.10
2023-05-04T11:36:52.791Z,24.08
2023-05-04T11:37:52.794Z,24.05
2023-05-04T11:38:52.821Z,23.89
2023-05-04T11:39:52.802Z,23.84
2023-05-04T11:40:52.775Z,23.74
2023-05-04T11:41:52.765Z,23.59
2023-05-04T11:42:54.756Z,23.60
2023-05-04T11:43:52.751Z,23.57
2023-05-04T11:44:52.743Z,23.51
2023-05-04T11:45:52.740Z,23.57
2023-05-04T11:46:52.875Z,23.62
2023-05-04T11:47:52.765Z,23.60
2023-05-04T11:48:52.714Z,23.63
2023-05-04T11:49:52.711Z,23.58
2023-05-04T11:50:52.692Z,23.51
2023-05-04T11:51:52.704Z,23.36
2023-05-04T11:52:52.683Z,23.38
2023-05-04T11:53:52.664Z,23.41
2023-05-04T11:54:54.099Z,23.42
2023-05-04T11:55:52.661Z,23.44
2023-05-04T11:56:52.733Z,23.41
2023-05-04T11:57:52.647Z,23.38
2023-05-04T11:58:52.654Z,23.89
2023-05-04T11:59:52.638Z,24.35
2023-05-04T12:00:53.753Z,24.06
2023-05-04T12:01:52.616Z,24.34
2023-05-04T12:02:52.681Z,23.78
2023-05-04T12:03:54.256Z,24.66
2023-05-04T12:04:52.604Z,25.22
2023-05-04T12:05:52.700Z,24.87
2023-05-04T12:06:52.604Z,25.86
2023-05-04T12:07:52.690Z,25.22
2023-05-04T12:08:52.575Z,25.09
2023-05-04T12:09:52.585Z,25.16
2023-05-04T12:10:52.559Z,25.26
2023-05-04T12:11:52.578Z,24.76
2023-05-04T12:12:52.593Z,24.84
2023-05-04T12:13:52.710Z,24.57
2023-05-04T12:14:52.545Z,24.89
2023-05-04T12:15:52.543Z,24.98
2023-05-04T12:16:52.514Z,25.13
2023-05-04T12:17:52.538Z,25.31
2023-05-04T12:18:52.533Z,25.10
2023-05-04T12:19:52.514Z,24.94
2023-05-04T12:20:52.488Z,24.52
2023-05-04T12:21:52.568Z,24.54
2023-05-04T12:22:52.482Z,24.29
2023-05-04T12:23:52.519Z,24.16
2023-05-04T12:24:52.503Z,24.12
2023-05-04T12:25:58.209Z,24.07
2023-05-04T12:26:53.542Z,23.97
2023-05-04T12:27:52.520Z,23.97
2023-05-04T12:28:52.541Z,23.84
2023-05-04T12:29:52.612Z,23.87
2023-05-04T12:30:52.486Z,23.68
2023-05-04T12:31:52.516Z,23.72
2023-05-04T12:32:52.519Z,23.62
2023-05-04T12:33:52.523Z,23.61
2023-05-04T12:34:52.492Z,23.58
2023-05-04T12:35:52.453Z,23.58
2023-05-04T12:36:52.478Z,23.54
2023-05-04T12:37:52.450Z,23.47
2023-05-04T12:38:52.441Z,23.43
2023-05-04T12:39:52.441Z,23.30
2023-05-04T12:40:52.445Z,23.25
2023-05-04T12:41:52.439Z,23.34
2023-05-04T12:42:52.424Z,23.32
2023-05-04T12:43:52.430Z,23.30
2023-05-04T12:44:52.417Z,23.13
2023-05-04T12:45:52.408Z,23.26
2023-05-04T12:46:52.386Z,23.27
2023-05-04T12:47:52.416Z,23.12
2023-05-04T12:48:52.377Z,23.12
2023-05-04T12:49:52.398Z,23.16
2023-05-04T12:50:52.399Z,23.03
2023-05-04T12:51:52.417Z,22.96
2023-05-04T12:52:52.542Z,22.94
2023-05-04T12:53:52.473Z,22.85
2023-05-04T12:54:52.504Z,22.87